Mint Hill, North Carolina
Current Conditions -  °F | °C
As of 3:53 PM on Tuesday 21 Oct 2014 (Local Time) from KEQY Reporting Station
Clear Clear  
Wind Chill: 75°   Ceiling: Unl
Heat Index: 75°   Visibility: 10mi
Dew Point: 45°   Wind: 9mph
Humidity: 34%   Direction: 270°W
Pressure: 29.85"   Gusts: 17mph
Location:  35.17°N, 80.66°W
Report Text: KEQY 211953Z AUTO 27008G15KT 10SM CLR 24/07 A2985 RMK AO2 SLP113 T02390072
Loading
Personal Weather Stations






























Interactive Weather Map
Tropical Storm Tracking
New forecast layout! Learn more

10-Day Weather Forecast

Advertisements
Track Severe Weather on mobile